ADDS METAR Data INFO
IDs: Format: Raw Decoded Include TAF

Data at: 1931 UTC 19 Jul 2018

KPHT 191915Z AUTO 00000KT 10SM SCT043 SCT049 SCT055 31/22 A2993 RMK A01
KPHT 191855Z AUTO 00000KT 10SM FEW042 31/22 A2993 RMK A01
KPHT 191835Z AUTO 14004KT 10SM CLR 31/22 A2994 RMK A01
KPHT 191815Z AUTO 21005KT 10SM CLR 31/22 A2994 RMK A01
KPHT 191755Z AUTO 20004KT 10SM CLR 31/22 A2995 RMK A01
KPHT 191735Z AUTO VRB06G13KT 10SM CLR 31/22 A2996 RMK A01
KPHT 191715Z AUTO 19003KT 10SM CLR 30/21 A2996 RMK A01
KPHT 191655Z AUTO 16004KT 10SM FEW085 30/21 A2996 RMK A01
KPHT 191635Z AUTO 14006KT 10SM CLR 29/21 A2996 RMK A01
KPHT 191615Z AUTO 13005KT 10SM FEW095 29/21 A2997 RMK A01
KPHT 191555Z AUTO 12006KT 10SM CLR 29/21 A2997 RMK A01
KPHT 191535Z AUTO VRB05G10KT 10SM CLR 29/22 A2997 RMK A01
KPHT 191515Z AUTO 14007KT 10SM FEW080 28/21 A2997 RMK A01
KPHT 191455Z AUTO 17007KT 10SM CLR 28/21 A2997 RMK A01
KPHT 191435Z AUTO 14005KT 10SM CLR 27/21 A2997 RMK A01
KPHT 191415Z AUTO 14006KT 10SM CLR 26/21 A2998 RMK A01
KPHT 191355Z AUTO 14005KT 10SM CLR 26/21 A2998 RMK A01
KPHT 191335Z AUTO 10005KT 10SM CLR 25/20 A2998 RMK A01
KPHT 191315Z AUTO 12003KT 10SM CLR 25/20 A2998 RMK A01
KPHT 191255Z AUTO 10004KT 10SM CLR 24/20 A2997 RMK A01
KPHT 191235Z AUTO 00000KT 10SM CLR 23/20 A2998 RMK A01
KPHT 191215Z AUTO 00000KT 10SM CLR 22/19 A2998 RMK A01
KPHT 191155Z AUTO 05003KT 10SM CLR 21/19 A2997 RMK A01
KPHT 191135Z AUTO 05003KT 10SM CLR 21/19 A2997 RMK A01
KPHT 191115Z AUTO 00000KT 10SM CLR 21/19 A2997 RMK A01
KPHT 191055Z AUTO 00000KT 10SM CLR 20/19 A2997 RMK A01
KPHT 191035Z AUTO 06003KT 10SM CLR 21/19 A2996 RMK A01
KPHT 191015Z AUTO 04004KT 10SM FEW075 20/19 A2996 RMK A01
KPHT 190955Z AUTO 05003KT 10SM CLR 20/19 A2996 RMK A01
KPHT 190935Z AUTO 04004KT 10SM CLR 20/19 A2996 RMK A01
KPHT 190915Z AUTO 05004KT 10SM CLR 20/19 A2995 RMK A01
KPHT 190855Z AUTO 00000KT 10SM CLR 20/19 A2996 RMK A01
KPHT 190835Z AUTO 03003KT 10SM CLR 20/19 A2996 RMK A01
KPHT 190815Z AUTO 00000KT 10SM CLR 20/19 A2996 RMK A01
KPHT 190755Z AUTO 00000KT 10SM CLR 20/19 A2996 RMK A01
KPHT 190735Z AUTO 03003KT 10SM CLR 21/19 A2996 RMK A01
KPHT 190715Z AUTO 04003KT 10SM CLR 21/19 A2996 RMK A01
KPHT 190655Z AUTO 06004KT 10SM CLR 22/19 A2997 RMK A01
KPHT 190635Z AUTO 05004KT 10SM FEW042 22/19 A2997 RMK A01
KPHT 190615Z AUTO 05004KT 10SM FEW038 FEW045 22/19 A2997 RMK A01
KPHT 190555Z AUTO 04004KT 10SM CLR 22/19 A2998 RMK A01
KPHT 190535Z AUTO 07004KT 10SM CLR 22/19 A2998 RMK A01
KPHT 190515Z AUTO 04003KT 10SM CLR 22/19 A2999 RMK A01
KPHT 190455Z AUTO 04004KT 10SM CLR 23/19 A2999 RMK A01
KPHT 190435Z AUTO 06005KT 10SM CLR 23/20 A2999 RMK A01
KPHT 190415Z AUTO 06003KT 10SM CLR 23/20 A2998 RMK A01
KPHT 190355Z AUTO 05003KT 10SM CLR 23/20 A2999 RMK A01
KPHT 190335Z AUTO 05005KT 10SM CLR 23/21 A2998 RMK A01
KPHT 190315Z AUTO 00000KT 10SM CLR 23/21 A2999 RMK A01
KPHT 190255Z AUTO 00000KT 10SM CLR 23/21 A2998 RMK A01
KPHT 190235Z AUTO 03004KT 10SM CLR 23/21 A2998 RMK A01
KPHT 190215Z AUTO 00000KT 10SM FEW033 24/22 A2997 RMK A01
KPHT 190155Z AUTO 05004KT 10SM FEW035 23/22 A2997 RMK A01
KPHT 190135Z AUTO 00000KT 10SM FEW037 24/22 A2996 RMK A01
KPHT 190115Z AUTO 01004KT 10SM CLR 25/22 A2996 RMK A01
KPHT 190055Z AUTO 00000KT 10SM CLR 25/22 A2995 RMK A01
KPHT 190035Z AUTO 02004KT 10SM CLR 25/22 A2995 RMK A01
KPHT 190015Z AUTO 02004KT 10SM CLR 26/22 A2996 RMK A01
KPHT 182355Z AUTO 04006KT 10SM CLR 28/21 A2996 RMK A01
KPHT 182335Z AUTO 05005KT 10SM CLR 29/22 A2996 RMK A01
KPHT 182315Z AUTO 06004KT 10SM CLR 29/22 A2996 RMK A01
KPHT 182255Z AUTO 04006KT 10SM CLR 28/21 A2996 RMK A01
KPHT 182235Z AUTO 04007KT 10SM CLR 29/21 A2996 RMK A01
KPHT 182215Z AUTO 04005KT 10SM CLR 29/21 A2997 RMK A01
KPHT 182155Z AUTO 04006KT 10SM CLR 30/21 A2998 RMK A01
KPHT 182135Z AUTO 03008KT 10SM CLR 30/20 A2998 RMK A01
KPHT 182115Z AUTO 06006KT 10SM CLR 30/20 A2998 RMK A01
KPHT 182055Z AUTO VRB06G11KT 10SM CLR 30/20 A2999 RMK A01
KPHT 182035Z AUTO 04006KT 10SM CLR 30/20 A2998 RMK A01
KPHT 182015Z AUTO 06006KT 10SM CLR 30/19 A2998 RMK A01
KPHT 181955Z AUTO 07007KT 10SM CLR 30/20 A2999 RMK A01
KPHT 181935Z AUTO 06007KT 10SM CLR 31/20 A3000 RMK A01
KPHT 181915Z AUTO VRB06G11KT 10SM CLR 30/19 A3001 RMK A01
KPHT 181855Z AUTO 06007KT 10SM CLR 30/19 A3002 RMK A01
KPHT 181835Z AUTO 07006KT 10SM CLR 30/20 A3002 RMK A01
KPHT 181815Z AUTO 05008KT 10SM CLR 30/19 A3003 RMK A01
KPHT 181755Z AUTO 05006KT 10SM CLR 30/19 A3003 RMK A01
KPHT 181735Z AUTO 06007KT 10SM CLR 30/19 A3003 RMK A01
KPHT 181715Z AUTO 05009KT 10SM CLR 30/19 A3004 RMK A01
KPHT 181655Z AUTO 09007KT 050V120 10SM CLR 30/19 A3004 RMK A01
KPHT 181635Z AUTO 08006G12KT 10SM CLR 30/19 A3004 RMK A01
KPHT 181615Z AUTO 06006KT 10SM CLR 29/19 A3005 RMK A01
KPHT 181555Z AUTO 09006KT 10SM CLR 28/19 A3005 RMK A01
KPHT 181535Z AUTO VRB05G11KT 10SM CLR 28/19 A3005 RMK A01
KPHT 181515Z AUTO 09005G11KT 10SM CLR 28/20 A3005 RMK A01
KPHT 181455Z AUTO 08006KT 10SM CLR 28/20 A3005 RMK A01
KPHT 181435Z AUTO 09005KT 10SM CLR 27/20 A3005 RMK A01
KPHT 181415Z AUTO 07008KT 10SM CLR 27/20 A3005 RMK A01
KPHT 181355Z AUTO VRB06G12KT 10SM CLR 26/21 A3005 RMK A01
KPHT 181335Z AUTO 07006KT 10SM CLR 26/21 A3005 RMK A01
KPHT 181315Z AUTO 07007KT 10SM CLR 25/21 A3004 RMK A01
KPHT 181255Z AUTO 06005KT 10SM CLR 24/21 A3004 RMK A01
KPHT 181235Z AUTO 05006KT 10SM CLR 24/21 A3004 RMK A01
KPHT 181215Z AUTO 06005KT 10SM CLR 23/21 A3003 RMK A01
KPHT 181155Z AUTO 04005KT 10SM CLR 22/21 A3003 RMK A01
KPHT 181135Z AUTO 05003KT 10SM CLR 22/21 A3003 RMK A01
KPHT 181115Z AUTO 05004KT 10SM CLR 22/21 A3002 RMK A01
KPHT 181055Z AUTO 03004KT 10SM CLR 22/21 A3002 RMK A01
KPHT 181035Z AUTO 04004KT 10SM CLR 22/21 A3001 RMK A01
KPHT 181015Z AUTO 03004KT 10SM CLR 22/21 A3002 RMK A01
KPHT 180955Z AUTO 3.75000004KT 10SM CLR 23/21 A3002 RMK A01
KPHT 180935Z AUTO 00000KT 10SM CLR 22/21 A3001 RMK A01
KPHT 180915Z AUTO 00000KT 10SM CLR 23/22 A3001 RMK A01
KPHT 180855Z AUTO 00000KT 10SM CLR 23/21 A3001 RMK A01
KPHT 180835Z AUTO 00000KT 10SM CLR 24/21 A3000 RMK A01
KPHT 180815Z AUTO 04003KT 10SM CLR 24/22 A3001 RMK A01
KPHT 180755Z AUTO 00000KT 10SM CLR 23/22 A3001 RMK A01
KPHT 180735Z AUTO 02003KT 10SM CLR 23/22 A3000 RMK A01